createdAt,value
2019-06-08T00:02:24.795Z,59.10
2019-06-08T00:04:52.249Z,58.90
2019-06-08T00:07:20.895Z,58.85
2019-06-08T00:09:47.265Z,58.21
2019-06-08T00:12:14.823Z,58.04
2019-06-08T00:14:42.274Z,58.06
2019-06-08T00:17:09.851Z,58.01
2019-06-08T00:19:37.338Z,58.21
2019-06-08T00:22:04.833Z,58.05
2019-06-08T00:24:32.273Z,57.88
2019-06-08T00:26:59.727Z,57.60
2019-06-08T00:29:27.190Z,57.49
2019-06-08T00:31:54.688Z,57.36
2019-06-08T00:34:22.702Z,57.20
2019-06-08T00:36:49.647Z,57.25
2019-06-08T00:39:17.120Z,57.46
2019-06-08T00:41:44.573Z,57.44
2019-06-08T00:44:12.031Z,57.56
2019-06-08T00:46:39.494Z,57.73
2019-06-08T00:49:06.936Z,57.47
2019-06-08T00:51:34.495Z,57.76
2019-06-08T00:54:02.001Z,57.45
2019-06-08T00:56:30.017Z,57.36
2019-06-08T00:58:56.937Z,57.31
2019-06-08T01:01:26.374Z,57.42
2019-06-08T01:03:52.008Z,57.81
2019-06-08T01:06:20.848Z,57.74
2019-06-08T01:08:46.942Z,57.96
2019-06-08T01:11:14.397Z,57.77
2019-06-08T01:13:41.862Z,58.15
2019-06-08T01:16:09.313Z,58.22
2019-06-08T01:18:36.779Z,58.04
2019-06-08T01:21:04.281Z,57.68
2019-06-08T01:23:31.728Z,57.27
2019-06-08T01:25:59.213Z,57.53
2019-06-08T01:28:28.016Z,57.86
2019-06-08T01:30:54.192Z,57.81
2019-06-08T01:33:22.546Z,57.78
2019-06-08T01:35:49.214Z,57.59
2019-06-08T01:38:16.665Z,57.53
2019-06-08T01:40:44.098Z,57.73
2019-06-08T01:43:11.554Z,57.56
2019-06-08T01:45:39.029Z,57.80
2019-06-08T01:48:19.560Z,58.14
2019-06-08T01:50:34.039Z,58.68
2019-06-08T01:53:01.501Z,58.41
2019-06-08T01:55:29.070Z,58.50
2019-06-08T01:57:56.507Z,58.31
2019-06-08T02:00:37.734Z,58.39
2019-06-08T02:02:51.488Z,58.22
2019-06-08T02:05:18.954Z,58.24
2019-06-08T02:07:46.408Z,57.83
2019-06-08T02:10:13.889Z,57.57
2019-06-08T02:12:41.347Z,57.36
2019-06-08T02:15:08.800Z,57.13
2019-06-08T02:17:36.261Z,57.19
2019-06-08T02:20:05.666Z,57.12
2019-06-08T02:22:33.179Z,56.66
2019-06-08T02:25:00.611Z,56.59
2019-06-08T02:27:29.212Z,56.29
2019-06-08T02:29:55.549Z,56.08
2019-06-08T02:32:23.004Z,56.24
2019-06-08T02:34:50.464Z,56.36
2019-06-08T02:37:17.946Z,56.62
2019-06-08T02:39:45.433Z,56.43
2019-06-08T02:42:12.870Z,56.48
2019-06-08T02:44:40.696Z,56.76
2019-06-08T02:47:08.052Z,56.44
2019-06-08T02:49:37.106Z,56.63
2019-06-08T02:52:03.050Z,56.62
2019-06-08T02:54:32.347Z,56.75
2019-06-08T02:56:58.042Z,56.57
2019-06-08T02:59:25.547Z,56.65
2019-06-08T03:01:53.018Z,56.66
2019-06-08T03:04:20.521Z,56.80
2019-06-08T03:06:48.010Z,57.03
2019-06-08T03:09:15.468Z,57.09
2019-06-08T03:11:43.013Z,57.31
2019-06-08T03:14:10.533Z,57.29
2019-06-08T03:16:39.042Z,57.41
2019-06-08T03:19:21.148Z,57.69
2019-06-08T03:21:33.912Z,57.23
2019-06-08T03:24:00.502Z,57.44
2019-06-08T03:26:27.964Z,57.22
2019-06-08T03:28:55.479Z,57.32
2019-06-08T03:31:22.937Z,57.12
2019-06-08T03:33:55.919Z,56.82
2019-06-08T03:36:18.039Z,57.16
2019-06-08T03:38:45.523Z,57.39
2019-06-08T03:41:13.020Z,57.88
2019-06-08T03:43:42.248Z,58.22
2019-06-08T03:46:08.015Z,58.68
2019-06-08T03:48:37.021Z,58.57
2019-06-08T03:51:02.955Z,58.52
2019-06-08T03:53:30.427Z,59.03
2019-06-08T03:55:57.872Z,59.50
2019-06-08T03:58:25.370Z,59.52
2019-06-08T04:00:52.826Z,59.27
2019-06-08T04:03:20.287Z,59.70
2019-06-08T04:05:47.760Z,59.98
2019-06-08T04:08:15.236Z,59.96
2019-06-08T04:10:44.191Z,60.04
2019-06-08T04:13:11.622Z,59.48
2019-06-08T04:15:38.026Z,59.57
2019-06-08T04:18:05.225Z,59.41
2019-06-08T04:20:32.683Z,59.30
2019-06-08T04:23:00.196Z,58.97
2019-06-08T04:25:27.656Z,58.95
2019-06-08T04:27:55.157Z,59.37
2019-06-08T04:30:22.603Z,59.58
2019-06-08T04:32:50.072Z,59.41
2019-06-08T04:35:17.539Z,59.46
2019-06-08T04:37:46.749Z,59.83
2019-06-08T04:40:13.570Z,60.04
2019-06-08T04:42:41.708Z,60.26
2019-06-08T04:45:08.643Z,60.63
2019-06-08T04:47:36.098Z,60.80
2019-06-08T04:50:21.019Z,60.49
2019-06-08T04:52:31.118Z,60.62
2019-06-08T04:54:58.586Z,60.25
2019-06-08T04:57:26.061Z,60.18
2019-06-08T04:59:53.562Z,60.02
2019-06-08T05:02:21.059Z,59.59
2019-06-08T05:04:49.478Z,59.03
2019-06-08T05:07:16.061Z,58.45
2019-06-08T05:09:45.087Z,58.10
2019-06-08T05:12:11.252Z,57.52
2019-06-08T05:14:39.122Z,57.07
2019-06-08T05:17:06.231Z,56.08
2019-06-08T05:19:34.221Z,55.69
2019-06-08T05:22:01.480Z,54.66
2019-06-08T05:24:29.048Z,53.97
2019-06-08T05:26:56.548Z,53.46
2019-06-08T05:29:24.010Z,52.70
2019-06-08T05:31:51.506Z,52.28
2019-06-08T05:34:19.020Z,52.96
2019-06-08T05:36:47.562Z,53.04
2019-06-08T05:39:14.026Z,52.54
2019-06-08T05:41:41.489Z,52.08
2019-06-08T05:44:08.972Z,51.96
2019-06-08T05:46:36.433Z,51.77
2019-06-08T05:49:03.954Z,52.08
2019-06-08T05:51:31.462Z,51.21
2019-06-08T05:53:58.941Z,51.09
2019-06-08T05:56:26.414Z,50.90
2019-06-08T05:58:53.459Z,50.55
2019-06-08T06:01:20.528Z,50.17
2019-06-08T06:03:48.700Z,50.15
2019-06-08T06:06:14.564Z,49.85
2019-06-08T06:08:42.495Z,49.88
2019-06-08T06:11:09.521Z,49.48
2019-06-08T06:13:36.978Z,49.86
2019-06-08T06:16:04.504Z,50.03
2019-06-08T06:18:31.528Z,49.83
2019-06-08T06:21:10.318Z,49.83
2019-06-08T06:23:25.653Z,49.90
2019-06-08T06:25:52.649Z,50.01
2019-06-08T06:28:19.715Z,49.56
2019-06-08T06:30:47.983Z,49.61
2019-06-08T06:33:13.921Z,49.86
2019-06-08T06:35:41.660Z,49.31
2019-06-08T06:38:07.991Z,48.89
2019-06-08T06:40:35.472Z,48.25
2019-06-08T06:43:02.923Z,48.45
2019-06-08T06:45:30.378Z,48.00
2019-06-08T06:47:57.866Z,47.74
2019-06-08T06:50:25.324Z,48.13
2019-06-08T06:52:52.997Z,47.47
2019-06-08T06:55:19.845Z,46.65
2019-06-08T06:57:47.213Z,46.49
2019-06-08T07:00:13.928Z,46.51
2019-06-08T07:02:41.026Z,45.54
2019-06-08T07:05:08.054Z,45.06
2019-06-08T07:07:35.128Z,43.22
2019-06-08T07:10:02.154Z,41.69
2019-06-08T07:12:29.224Z,40.62
2019-06-08T07:14:56.213Z,40.07
2019-06-08T07:17:23.203Z,39.78
2019-06-08T07:19:50.446Z,39.53
2019-06-08T07:22:17.288Z,38.96
2019-06-08T07:24:44.283Z,38.35
2019-06-08T07:27:11.347Z,37.78
2019-06-08T07:29:38.353Z,36.96
2019-06-08T07:32:05.370Z,36.05
2019-06-08T07:34:32.763Z,33.39
2019-06-08T07:36:59.808Z,32.45
2019-06-08T07:39:26.835Z,27.87
2019-06-08T07:41:54.303Z,26.88
2019-06-08T07:44:21.014Z,26.40
2019-06-08T07:46:49.295Z,26.22
2019-06-08T07:49:15.064Z,25.80
2019-06-08T07:51:57.653Z,26.08
2019-06-08T07:54:09.169Z,25.79
2019-06-08T07:56:36.165Z,26.24
2019-06-08T07:59:03.153Z,26.21
2019-06-08T08:01:36.357Z,25.46
2019-06-08T08:03:58.377Z,25.43
2019-06-08T08:06:24.281Z,25.28
2019-06-08T08:08:52.512Z,25.83
2019-06-08T08:11:18.390Z,26.03
2019-06-08T08:13:45.654Z,25.78
2019-06-08T08:16:13.303Z,25.15
2019-06-08T08:18:40.349Z,24.05
2019-06-08T08:21:21.035Z,23.83
2019-06-08T08:23:34.633Z,23.86
2019-06-08T08:26:01.972Z,24.14
2019-06-08T08:28:28.704Z,23.62
2019-06-08T08:30:58.569Z,24.01
2019-06-08T08:33:22.878Z,23.71
2019-06-08T08:35:51.126Z,23.48
2019-06-08T08:38:17.729Z,23.85
2019-06-08T08:40:43.984Z,23.69
2019-06-08T08:43:11.021Z,23.61
2019-06-08T08:45:38.066Z,23.55
2019-06-08T08:48:21.101Z,23.64
2019-06-08T08:50:32.335Z,23.54
2019-06-08T08:53:01.234Z,23.20
2019-06-08T08:55:27.993Z,23.30
2019-06-08T08:57:54.747Z,23.24
2019-06-08T09:00:20.572Z,23.16
2019-06-08T09:02:50.217Z,23.05
2019-06-08T09:05:14.701Z,23.08
2019-06-08T09:07:41.808Z,22.12
2019-06-08T09:10:11.284Z,22.25
2019-06-08T09:12:37.708Z,22.43
2019-06-08T09:15:03.980Z,22.47
2019-06-08T09:17:29.986Z,22.66
2019-06-08T09:19:58.842Z,22.77
2019-06-08T09:22:24.074Z,22.67
2019-06-08T09:24:52.525Z,22.34
2019-06-08T09:27:18.405Z,22.32
2019-06-08T09:29:48.014Z,22.77
2019-06-08T09:32:12.658Z,22.92
2019-06-08T09:34:39.705Z,22.68
2019-06-08T09:37:08.081Z,22.86
2019-06-08T09:39:33.807Z,23.22
2019-06-08T09:42:03.028Z,23.60
2019-06-08T09:44:28.957Z,23.37
2019-06-08T09:46:58.733Z,22.85
2019-06-08T09:49:23.091Z,22.80
2019-06-08T09:51:50.321Z,22.47
2019-06-08T09:54:18.306Z,22.43
2019-06-08T09:56:44.654Z,22.55
2019-06-08T09:59:15.180Z,22.18
2019-06-08T10:01:39.920Z,22.09
2019-06-08T10:04:09.255Z,22.07
2019-06-08T10:06:34.166Z,22.11
2019-06-08T10:09:02.668Z,22.05
2019-06-08T10:11:28.299Z,22.00
2019-06-08T10:13:57.073Z,22.54
2019-06-08T10:16:22.523Z,22.27
2019-06-08T10:18:51.490Z,22.45
2019-06-08T10:21:18.302Z,21.81
2019-06-08T10:23:44.059Z,21.57
2019-06-08T10:26:11.101Z,21.06
2019-06-08T10:28:39.034Z,21.56
2019-06-08T10:31:06.920Z,21.59
2019-06-08T10:33:32.756Z,21.60
2019-06-08T10:36:03.163Z,21.11
2019-06-08T10:38:28.922Z,21.17
2019-06-08T10:41:06.585Z,20.62
2019-06-08T10:43:28.858Z,21.04
2019-06-08T10:45:54.569Z,22.48
2019-06-08T10:48:21.583Z,21.78
2019-06-08T10:50:48.607Z,21.59
2019-06-08T10:53:16.680Z,21.52
2019-06-08T10:55:42.695Z,21.55
2019-06-08T10:58:11.348Z,21.92
2019-06-08T11:00:38.849Z,22.49
2019-06-08T11:03:05.511Z,22.33
2019-06-08T11:05:31.120Z,21.12
2019-06-08T11:07:59.323Z,20.61
2019-06-08T11:10:25.134Z,20.37
2019-06-08T11:12:52.712Z,20.45
2019-06-08T11:15:20.198Z,20.61
2019-06-08T11:17:47.227Z,20.93
2019-06-08T11:20:14.278Z,21.49
2019-06-08T11:22:41.321Z,21.51
2019-06-08T11:25:15.286Z,21.82
2019-06-08T11:27:35.458Z,21.85
2019-06-08T11:30:10.840Z,21.76
2019-06-08T11:32:29.621Z,21.47
2019-06-08T11:34:56.626Z,20.85
2019-06-08T11:37:23.848Z,20.92
2019-06-08T11:39:51.300Z,20.39
2019-06-08T11:42:19.095Z,20.84
2019-06-08T11:44:47.975Z,20.88
2019-06-08T11:47:13.477Z,20.87
2019-06-08T11:49:39.458Z,20.80
2019-06-08T11:52:06.847Z,20.87
2019-06-08T11:54:37.435Z,20.54
2019-06-08T11:57:02.751Z,20.29
2019-06-08T11:59:29.070Z,20.13
2019-06-08T12:01:58.484Z,19.60
2019-06-08T12:04:23.097Z,20.33
2019-06-08T12:06:50.097Z,20.57
2019-06-08T12:09:18.847Z,20.72
2019-06-08T12:11:44.613Z,20.68
2019-06-08T12:14:13.110Z,20.57
2019-06-08T12:16:39.672Z,20.42
2019-06-08T12:19:11.996Z,20.65
2019-06-08T12:21:34.628Z,20.36
2019-06-08T12:24:04.143Z,20.37
2019-06-08T12:26:30.456Z,20.46
2019-06-08T12:29:01.017Z,20.56
2019-06-08T12:31:27.951Z,20.43
2019-06-08T12:33:52.959Z,20.46
2019-06-08T12:36:20.981Z,20.36
2019-06-08T12:38:48.637Z,20.31
2019-06-08T12:41:16.005Z,20.53
2019-06-08T12:43:43.090Z,20.27
2019-06-08T12:46:12.587Z,20.13
2019-06-08T12:48:38.462Z,19.73
2019-06-08T12:51:05.579Z,19.51
2019-06-08T12:53:33.122Z,19.08
2019-06-08T12:56:00.190Z,18.52
2019-06-08T12:58:27.696Z,18.46
2019-06-08T13:00:54.861Z,18.61
2019-06-08T13:03:21.898Z,18.51
2019-06-08T13:05:48.944Z,18.24
2019-06-08T13:08:17.453Z,18.20
2019-06-08T13:10:43.094Z,17.49
2019-06-08T13:13:11.199Z,17.38
2019-06-08T13:15:38.443Z,16.10
2019-06-08T13:18:04.203Z,15.84
2019-06-08T13:20:31.708Z,15.99
2019-06-08T13:23:00.381Z,16.47
2019-06-08T13:25:37.434Z,16.75
2019-06-08T13:27:54.207Z,16.36
2019-06-08T13:30:25.887Z,15.72
2019-06-08T13:32:49.435Z,16.13
2019-06-08T13:35:19.155Z,16.61
2019-06-08T13:37:47.334Z,17.11
2019-06-08T13:40:13.198Z,16.50
2019-06-08T13:42:40.054Z,16.37
2019-06-08T13:45:07.626Z,16.82
2019-06-08T13:47:38.238Z,17.16
2019-06-08T13:50:02.807Z,17.17
2019-06-08T13:52:30.386Z,16.56
2019-06-08T13:54:58.332Z,16.25
2019-06-08T13:57:25.393Z,16.10
2019-06-08T13:59:52.877Z,15.49
2019-06-08T14:02:26.364Z,16.03
2019-06-08T14:04:49.170Z,16.51
2019-06-08T14:07:19.678Z,16.65
2019-06-08T14:09:43.061Z,16.66
2019-06-08T14:12:10.536Z,16.57
2019-06-08T14:14:39.934Z,16.71
2019-06-08T14:17:08.340Z,16.54
2019-06-08T14:19:33.226Z,16.35
2019-06-08T14:22:00.678Z,15.89
2019-06-08T14:24:34.288Z,16.08
2019-06-08T14:26:58.239Z,16.23
2019-06-08T14:29:24.389Z,16.51
2019-06-08T14:31:50.734Z,16.76
2019-06-08T14:34:20.546Z,16.82
2019-06-08T14:36:48.865Z,16.54
2019-06-08T14:39:14.274Z,15.99
2019-06-08T14:41:41.917Z,16.33
2019-06-08T14:44:09.436Z,16.60
2019-06-08T14:46:40.740Z,16.60
2019-06-08T14:49:04.469Z,16.40
2019-06-08T14:51:38.530Z,16.09
2019-06-08T14:54:05.251Z,15.38
2019-06-08T14:56:32.741Z,15.57
2019-06-08T14:59:00.521Z,15.78
2019-06-08T15:01:29.799Z,16.11
2019-06-08T15:03:55.372Z,16.42
2019-06-08T15:06:23.291Z,16.30
2019-06-08T15:08:50.458Z,16.44
2019-06-08T15:11:18.368Z,16.74
2019-06-08T15:13:48.544Z,16.36
2019-06-08T15:16:13.115Z,16.68
2019-06-08T15:18:40.601Z,17.06
2019-06-08T15:21:08.120Z,17.05
2019-06-08T15:23:35.634Z,16.92
2019-06-08T15:26:03.094Z,17.04
2019-06-08T15:28:35.461Z,17.18
2019-06-08T15:31:00.057Z,17.80
2019-06-08T15:33:26.947Z,17.70
2019-06-08T15:35:53.224Z,17.58
2019-06-08T15:38:22.199Z,17.51
2019-06-08T15:40:48.288Z,17.68
2019-06-08T15:43:17.867Z,17.91
2019-06-08T15:45:43.334Z,17.74
2019-06-08T15:48:10.797Z,18.32
2019-06-08T15:50:38.315Z,18.02
2019-06-08T15:53:08.068Z,18.89
2019-06-08T15:55:34.508Z,19.51
2019-06-08T15:58:00.854Z,19.27
2019-06-08T16:00:31.040Z,19.18
2019-06-08T16:02:55.835Z,19.23
2019-06-08T16:05:23.487Z,18.88
2019-06-08T16:07:50.812Z,19.01
2019-06-08T16:10:18.289Z,18.85
2019-06-08T16:12:45.743Z,18.46
2019-06-08T16:15:13.199Z,18.72
2019-06-08T16:17:41.124Z,19.09
2019-06-08T16:20:08.730Z,19.52
2019-06-08T16:22:36.267Z,19.55
2019-06-08T16:25:03.844Z,19.38
2019-06-08T16:27:32.149Z,19.28
2019-06-08T16:29:58.897Z,19.87
2019-06-08T16:32:27.413Z,19.70
2019-06-08T16:34:53.929Z,19.73
2019-06-08T16:37:21.399Z,19.56
2019-06-08T16:39:48.854Z,19.81
2019-06-08T16:42:16.457Z,19.99
2019-06-08T16:44:43.909Z,20.16
2019-06-08T16:47:11.603Z,20.25
2019-06-08T16:49:39.660Z,20.20
2019-06-08T16:52:06.609Z,19.99
2019-06-08T16:54:35.078Z,19.82
2019-06-08T16:57:10.083Z,19.86
2019-06-08T16:59:30.204Z,19.96
2019-06-08T17:01:57.755Z,19.98
2019-06-08T17:04:25.405Z,20.17
2019-06-08T17:06:52.882Z,20.54
2019-06-08T17:09:20.320Z,19.58
2019-06-08T17:11:47.770Z,19.27
2019-06-08T17:14:15.230Z,19.30
2019-06-08T17:16:43.421Z,19.82
2019-06-08T17:19:10.965Z,20.19
2019-06-08T17:21:38.486Z,21.13
2019-06-08T17:24:06.004Z,21.92
2019-06-08T17:26:34.620Z,21.96
2019-06-08T17:29:01.065Z,22.52
2019-06-08T17:31:28.569Z,22.48
2019-06-08T17:33:56.043Z,22.89
2019-06-08T17:36:23.578Z,22.96
2019-06-08T17:38:51.456Z,23.23
2019-06-08T17:41:18.918Z,24.02
2019-06-08T17:43:46.495Z,24.06
2019-06-08T17:46:13.950Z,24.23
2019-06-08T17:48:42.821Z,24.54
2019-06-08T17:51:08.946Z,24.58
2019-06-08T17:53:36.958Z,24.52
2019-06-08T17:56:04.015Z,24.25
2019-06-08T17:58:31.565Z,24.52
2019-06-08T18:00:59.218Z,24.89
2019-06-08T18:03:27.894Z,25.15
2019-06-08T18:05:54.182Z,25.08
2019-06-08T18:08:24.468Z,25.65
2019-06-08T18:10:49.317Z,25.06
2019-06-08T18:13:18.466Z,24.70
2019-06-08T18:15:44.998Z,24.73
2019-06-08T18:18:12.010Z,25.06
2019-06-08T18:20:41.960Z,25.29
2019-06-08T18:23:08.162Z,25.54
2019-06-08T18:25:34.515Z,25.68
2019-06-08T18:28:09.716Z,25.63
2019-06-08T18:30:29.605Z,25.83
2019-06-08T18:32:58.107Z,25.82
2019-06-08T18:35:24.629Z,25.66
2019-06-08T18:37:52.095Z,26.11
2019-06-08T18:40:19.633Z,25.71
2019-06-08T18:42:48.783Z,25.91
2019-06-08T18:45:14.838Z,26.09
2019-06-08T18:47:43.747Z,26.21
2019-06-08T18:50:09.806Z,26.46
2019-06-08T18:52:41.426Z,26.62
2019-06-08T18:55:08.169Z,26.58
2019-06-08T18:57:33.163Z,26.52
2019-06-08T19:00:08.141Z,26.46
2019-06-08T19:02:28.743Z,26.34
2019-06-08T19:04:57.353Z,26.46
2019-06-08T19:07:23.811Z,26.69
2019-06-08T19:09:51.330Z,26.98
2019-06-08T19:12:19.648Z,27.62
2019-06-08T19:14:47.508Z,28.19
2019-06-08T19:17:13.948Z,28.36
2019-06-08T19:19:45.726Z,28.63
2019-06-08T19:22:08.955Z,28.95
2019-06-08T19:24:40.363Z,29.22
2019-06-08T19:27:04.003Z,29.36
2019-06-08T19:29:31.485Z,29.48
2019-06-08T19:32:00.426Z,29.63
2019-06-08T19:34:29.033Z,29.98
2019-06-08T19:36:54.675Z,29.59
2019-06-08T19:39:21.730Z,29.58
2019-06-08T19:41:50.498Z,29.61
2019-06-08T19:44:18.319Z,29.54
2019-06-08T19:46:44.451Z,29.54
2019-06-08T19:49:11.790Z,29.74
2019-06-08T19:51:40.269Z,29.96
2019-06-08T19:54:07.161Z,29.97
2019-06-08T19:56:34.404Z,29.88
2019-06-08T19:59:05.169Z,30.30
2019-06-08T20:01:29.419Z,30.72
2019-06-08T20:04:00.399Z,32.21
2019-06-08T20:06:24.563Z,32.89
2019-06-08T20:08:53.333Z,33.30
2019-06-08T20:11:19.585Z,33.17
2019-06-08T20:13:49.706Z,32.58
2019-06-08T20:16:17.277Z,33.60
2019-06-08T20:18:42.314Z,33.16
2019-06-08T20:21:10.397Z,32.94
2019-06-08T20:23:38.387Z,32.77
2019-06-08T20:26:08.158Z,32.73
2019-06-08T20:28:33.555Z,33.13
2019-06-08T20:31:01.012Z,32.91
2019-06-08T20:33:28.498Z,32.90
2019-06-08T20:35:58.382Z,33.16
2019-06-08T20:38:35.061Z,33.01
2019-06-08T20:40:52.171Z,33.17
2019-06-08T20:43:18.491Z,33.12
2019-06-08T20:45:48.294Z,33.05
2019-06-08T20:48:13.523Z,32.95
2019-06-08T20:50:42.241Z,32.74
2019-06-08T20:53:08.688Z,32.68
2019-06-08T20:55:39.981Z,32.55
2019-06-08T20:58:05.362Z,32.43
2019-06-08T21:00:32.993Z,32.71
2019-06-08T21:03:02.982Z,32.90
2019-06-08T21:05:28.305Z,33.18
2019-06-08T21:07:56.411Z,33.53
2019-06-08T21:10:24.514Z,34.08
2019-06-08T21:12:52.666Z,34.25
2019-06-08T21:15:18.391Z,34.64
2019-06-08T21:17:49.067Z,35.31
2019-06-08T21:20:13.427Z,35.23
2019-06-08T21:22:40.900Z,35.85
2019-06-08T21:25:08.779Z,35.97
2019-06-08T21:27:38.381Z,35.83
2019-06-08T21:30:11.804Z,35.83
2019-06-08T21:32:31.082Z,36.41
2019-06-08T21:35:00.248Z,36.54
2019-06-08T21:37:28.056Z,36.28
2019-06-08T21:39:58.029Z,36.34
2019-06-08T21:42:21.875Z,36.95
2019-06-08T21:44:53.066Z,37.04
2019-06-08T21:47:16.872Z,36.98
2019-06-08T21:49:44.353Z,36.99
2019-06-08T21:52:11.996Z,37.21
2019-06-08T21:54:39.483Z,37.34
2019-06-08T21:57:09.563Z,37.59
2019-06-08T21:59:34.431Z,37.77
2019-06-08T22:02:03.894Z,37.80
2019-06-08T22:04:30.056Z,37.79
2019-06-08T22:06:59.728Z,37.82
2019-06-08T22:09:25.478Z,37.81
2019-06-08T22:11:52.943Z,37.93
2019-06-08T22:14:20.526Z,37.73
2019-06-08T22:16:48.037Z,37.69
2019-06-08T22:19:15.505Z,37.95
2019-06-08T22:24:17.228Z,38.44
2019-06-08T22:26:44.543Z,38.85
2019-06-08T22:29:12.050Z,39.20
2019-06-08T22:31:39.818Z,39.19
2019-06-08T22:34:07.428Z,39.53
2019-06-08T22:36:37.071Z,39.91
2019-06-08T22:39:03.796Z,39.88
2019-06-08T22:41:30.491Z,39.80
2019-06-08T22:44:00.771Z,40.07
2019-06-08T22:46:26.187Z,40.21
2019-06-08T22:48:54.649Z,40.48
2019-06-08T22:51:21.293Z,40.96
2019-06-08T22:53:49.058Z,41.52
2019-06-08T22:56:18.351Z,42.09
2019-06-08T22:58:44.407Z,42.24
2019-06-08T23:01:11.887Z,42.42
2019-06-08T23:03:39.426Z,42.12
2019-06-08T23:06:08.815Z,42.39
2019-06-08T23:08:34.404Z,42.45
2019-06-08T23:11:03.558Z,42.51
2019-06-08T23:13:29.423Z,42.72
2019-06-08T23:15:59.494Z,42.78
2019-06-08T23:18:24.509Z,42.88
2019-06-08T23:20:51.958Z,42.99
2019-06-08T23:23:19.430Z,43.38
2019-06-08T23:25:47.959Z,43.72
2019-06-08T23:28:14.495Z,43.87
2019-06-08T23:30:41.979Z,44.04
2019-06-08T23:33:11.262Z,44.57
2019-06-08T23:36:03.000Z,44.42
2019-06-08T23:38:05.079Z,44.32
2019-06-08T23:40:32.409Z,44.52
2019-06-08T23:43:01.340Z,44.67
2019-06-08T23:45:27.508Z,44.78
2019-06-08T23:47:56.999Z,44.88
2019-06-08T23:50:22.672Z,44.72
2019-06-08T23:52:50.130Z,44.84
2019-06-08T23:55:18.203Z,45.04
2019-06-08T23:57:45.101Z,45.67
